createdAt,value
2023-09-20T00:02:00.618Z,16.80
2023-09-20T00:05:29.165Z,16.83
2023-09-20T00:08:38.162Z,16.93
2023-09-20T00:11:10.234Z,16.99
2023-09-20T00:13:38.288Z,17.05
2023-09-20T00:17:08.200Z,17.06
2023-09-20T00:20:17.836Z,17.11
2023-09-20T00:22:46.577Z,17.14
2023-09-20T00:25:16.224Z,17.14
2023-09-20T00:27:47.511Z,17.16
2023-09-20T00:30:16.874Z,17.16
2023-09-20T00:32:45.554Z,17.17
2023-09-20T00:36:14.803Z,17.14
2023-09-20T00:40:43.399Z,17.08
2023-09-20T00:45:12.261Z,17.05
2023-09-20T00:48:41.680Z,17.05
2023-09-20T00:51:10.746Z,17.04
2023-09-20T00:53:39.804Z,17.01
2023-09-20T00:56:11.188Z,16.97
2023-09-20T00:59:40.058Z,16.92
2023-09-20T01:02:54.161Z,16.86
2023-09-20T01:05:27.222Z,16.85
2023-09-20T01:08:46.996Z,16.82
2023-09-20T01:12:16.261Z,16.78
2023-09-20T01:15:05.667Z,16.71
2023-09-20T01:18:54.450Z,16.68
2023-09-20T01:23:23.655Z,16.60
2023-09-20T01:25:52.233Z,16.53
2023-09-20T01:29:04.079Z,16.48
2023-09-20T01:32:53.281Z,16.42
2023-09-20T01:37:05.536Z,16.33
2023-09-20T01:40:36.781Z,16.27
2023-09-20T01:43:27.242Z,16.21
2023-09-20T01:45:56.161Z,16.15
2023-09-20T01:49:25.114Z,16.10
2023-09-20T01:52:08.061Z,16.01
2023-09-20T01:54:36.639Z,15.97
2023-09-20T01:57:07.213Z,15.95
2023-09-20T01:59:35.286Z,15.93
2023-09-20T02:02:04.708Z,15.92
2023-09-20T02:04:33.302Z,15.91
2023-09-20T02:07:01.265Z,15.87
2023-09-20T02:10:39.122Z,15.81
2023-09-20T02:13:09.334Z,15.76
2023-09-20T02:15:37.554Z,15.74
2023-09-20T02:19:06.509Z,15.72
2023-09-20T02:22:35.885Z,15.72
2023-09-20T02:25:10.161Z,15.70
2023-09-20T02:27:44.044Z,15.69
2023-09-20T02:30:16.429Z,15.68
2023-09-20T02:33:45.848Z,15.69
2023-09-20T02:36:18.135Z,15.65
2023-09-20T02:38:46.292Z,15.64
2023-09-20T02:42:15.000Z,15.61
2023-09-20T02:45:46.743Z,15.55
2023-09-20T02:48:15.711Z,15.53
2023-09-20T02:50:46.234Z,15.52
2023-09-20T02:54:14.941Z,15.51
2023-09-20T02:56:44.755Z,15.47
2023-09-20T03:00:13.656Z,15.43
2023-09-20T03:04:04.809Z,15.37
2023-09-20T03:07:55.294Z,15.38
2023-09-20T03:10:46.494Z,15.39
2023-09-20T03:13:18.507Z,15.38
2023-09-20T03:15:50.318Z,15.31
2023-09-20T03:18:24.289Z,15.27
2023-09-20T03:21:06.788Z,15.20
2023-09-20T03:23:35.258Z,15.13
2023-09-20T03:26:05.849Z,15.06
2023-09-20T03:28:37.441Z,15.01
2023-09-20T03:31:11.737Z,14.96
2023-09-20T03:34:40.976Z,14.91
2023-09-20T03:39:10.191Z,14.84
2023-09-20T03:43:19.209Z,14.85
2023-09-20T03:45:52.703Z,14.88
2023-09-20T03:48:21.870Z,14.89
2023-09-20T03:50:50.989Z,14.88
2023-09-20T03:54:20.966Z,14.86
2023-09-20T03:58:49.476Z,14.85
2023-09-20T04:02:57.941Z,14.89
2023-09-20T04:07:26.669Z,14.95
2023-09-20T04:09:54.718Z,15.00
2023-09-20T04:12:24.598Z,15.01
2023-09-20T04:15:53.551Z,15.00
2023-09-20T04:20:22.368Z,14.97
2023-09-20T04:23:46.493Z,14.96
2023-09-20T04:26:54.537Z,14.95
2023-09-20T04:30:05.005Z,14.95
2023-09-20T04:32:34.360Z,14.95
2023-09-20T04:36:04.388Z,14.94
2023-09-20T04:39:32.701Z,14.97
2023-09-20T04:42:00.818Z,15.00
2023-09-20T04:44:29.065Z,15.02
2023-09-20T04:47:57.975Z,15.01
2023-09-20T04:52:06.798Z,14.98
2023-09-20T04:55:57.373Z,14.95
2023-09-20T04:58:34.479Z,14.91
2023-09-20T05:01:02.474Z,14.88
2023-09-20T05:03:30.933Z,14.86
2023-09-20T05:05:59.338Z,14.84
2023-09-20T05:08:27.861Z,14.82
2023-09-20T05:10:57.044Z,14.80
2023-09-20T05:13:25.748Z,14.76
2023-09-20T05:15:53.948Z,14.74
2023-09-20T05:18:22.719Z,14.78
2023-09-20T05:20:50.968Z,14.83
2023-09-20T05:23:19.184Z,14.87
2023-09-20T05:25:49.663Z,14.91
2023-09-20T05:28:18.025Z,14.93
2023-09-20T05:30:49.988Z,14.97
2023-09-20T05:33:18.415Z,15.00
2023-09-20T05:35:48.598Z,15.04
2023-09-20T05:38:37.716Z,15.08
2023-09-20T05:41:05.974Z,15.12
2023-09-20T05:43:38.491Z,15.11
2023-09-20T05:46:08.869Z,15.11
2023-09-20T05:48:37.535Z,15.10
2023-09-20T05:51:05.679Z,15.16
2023-09-20T05:53:35.016Z,15.21
2023-09-20T05:56:09.496Z,15.28
2023-09-20T05:58:39.930Z,15.37
2023-09-20T06:01:11.717Z,15.47
2023-09-20T06:03:41.474Z,15.61
2023-09-20T06:06:09.620Z,15.82
2023-09-20T06:08:38.045Z,15.96
2023-09-20T06:11:06.203Z,16.06
2023-09-20T06:13:37.470Z,16.14
2023-09-20T06:16:10.004Z,16.20
2023-09-20T06:19:06.951Z,16.28
2023-09-20T06:21:39.472Z,16.33
2023-09-20T06:24:14.418Z,16.35
2023-09-20T06:26:42.497Z,16.36
2023-09-20T06:29:30.521Z,16.41
2023-09-20T06:31:58.621Z,16.47
2023-09-20T06:34:27.723Z,16.51
2023-09-20T06:36:55.874Z,16.54
2023-09-20T06:40:45.924Z,16.58
2023-09-20T06:43:14.450Z,16.67
2023-09-20T06:45:52.577Z,16.77
2023-09-20T06:48:28.442Z,16.90
2023-09-20T06:50:58.225Z,17.08
2023-09-20T06:53:26.719Z,17.36
2023-09-20T06:55:56.447Z,17.82
2023-09-20T06:58:46.363Z,18.47
2023-09-20T07:01:15.157Z,19.20
2023-09-20T07:03:43.454Z,19.80
2023-09-20T07:07:51.805Z,20.30
2023-09-20T07:12:00.848Z,20.96
2023-09-20T07:15:31.529Z,21.78
2023-09-20T07:18:00.512Z,22.01
2023-09-20T07:20:55.981Z,22.25
2023-09-20T07:23:25.323Z,22.54
2023-09-20T07:25:53.763Z,22.83
2023-09-20T07:28:23.899Z,23.10
2023-09-20T07:31:52.396Z,23.40
2023-09-20T07:35:43.842Z,23.73
2023-09-20T07:38:52.062Z,24.01
2023-09-20T07:42:23.052Z,24.21
2023-09-20T07:46:35.820Z,24.61
2023-09-20T07:49:10.618Z,24.86
2023-09-20T07:51:38.722Z,25.14
2023-09-20T07:54:10.794Z,25.40
2023-09-20T07:56:43.317Z,25.58
2023-09-20T07:59:14.781Z,25.81
2023-09-20T08:01:43.125Z,26.06
2023-09-20T08:04:12.241Z,26.19
2023-09-20T08:06:41.783Z,26.20
2023-09-20T08:09:12.478Z,26.44
2023-09-20T08:12:41.186Z,26.81
2023-09-20T08:15:29.873Z,27.38
2023-09-20T08:18:16.724Z,27.69
2023-09-20T08:20:45.048Z,28.14
2023-09-20T08:24:12.041Z,28.50
2023-09-20T08:28:39.284Z,28.92
2023-09-20T08:33:06.527Z,29.17
2023-09-20T08:37:33.538Z,29.44
2023-09-20T08:41:49.153Z,29.13
2023-09-20T08:46:15.582Z,28.75
2023-09-20T08:49:02.864Z,29.05
2023-09-20T08:52:14.363Z,29.44
2023-09-20T08:55:21.713Z,30.06
2023-09-20T08:58:09.914Z,30.39
2023-09-20T09:00:41.776Z,30.71
2023-09-20T09:03:10.967Z,30.85
2023-09-20T09:05:41.806Z,30.74
2023-09-20T09:08:11.683Z,30.77
2023-09-20T09:10:39.864Z,30.88
2023-09-20T09:14:08.630Z,30.89
2023-09-20T09:17:05.076Z,31.06
2023-09-20T09:19:33.513Z,31.36
2023-09-20T09:22:22.250Z,31.46
2023-09-20T09:24:50.427Z,31.62
2023-09-20T09:27:19.598Z,31.88
2023-09-20T09:29:48.382Z,32.01
2023-09-20T09:32:16.594Z,32.04
2023-09-20T09:34:45.893Z,32.06
2023-09-20T09:37:17.024Z,32.13
2023-09-20T09:40:01.465Z,32.24
2023-09-20T09:42:29.876Z,32.42
2023-09-20T09:45:00.067Z,32.56
2023-09-20T09:47:31.449Z,32.71
2023-09-20T09:50:02.627Z,32.83
2023-09-20T09:53:31.656Z,32.81
2023-09-20T09:56:26.316Z,32.69
2023-09-20T09:58:54.407Z,32.82
2023-09-20T10:01:24.085Z,32.87
2023-09-20T10:04:52.981Z,32.73
2023-09-20T10:07:28.799Z,32.77
2023-09-20T10:10:10.230Z,32.89
2023-09-20T10:12:39.770Z,32.84
2023-09-20T10:15:08.837Z,32.61
2023-09-20T10:17:52.656Z,32.63
2023-09-20T10:20:21.029Z,32.89
2023-09-20T10:22:49.211Z,33.13
2023-09-20T10:25:38.312Z,33.27
2023-09-20T10:28:10.676Z,33.22
2023-09-20T10:30:57.626Z,33.20
2023-09-20T10:34:29.705Z,33.21
2023-09-20T10:37:12.433Z,33.09
2023-09-20T10:39:43.892Z,33.25
2023-09-20T10:42:14.534Z,33.35
2023-09-20T10:44:44.759Z,33.48
2023-09-20T10:47:15.929Z,33.60
2023-09-20T10:49:48.945Z,33.60
2023-09-20T10:52:59.723Z,33.57
2023-09-20T10:55:38.167Z,33.60
2023-09-20T10:58:07.050Z,33.60
2023-09-20T11:00:49.056Z,33.23
2023-09-20T11:03:20.165Z,32.94
2023-09-20T11:05:51.784Z,32.91
2023-09-20T11:08:26.138Z,33.18
2023-09-20T11:11:08.001Z,33.51
2023-09-20T11:13:36.692Z,33.79
2023-09-20T11:16:06.410Z,34.16
2023-09-20T11:18:35.752Z,34.39
2023-09-20T11:21:05.739Z,34.55
2023-09-20T11:23:34.591Z,34.24
2023-09-20T11:26:06.124Z,33.91
2023-09-20T11:28:36.025Z,33.42
2023-09-20T11:31:04.445Z,33.21
2023-09-20T11:33:32.499Z,33.33
2023-09-20T11:36:01.020Z,33.40
2023-09-20T11:38:29.432Z,33.44
2023-09-20T11:40:58.069Z,33.52
2023-09-20T11:43:29.944Z,33.56
2023-09-20T11:46:02.041Z,33.44
2023-09-20T11:48:30.921Z,33.38
2023-09-20T11:50:59.179Z,33.46
2023-09-20T11:53:31.594Z,33.44
2023-09-20T11:56:02.155Z,33.36
2023-09-20T11:58:38.100Z,33.41
2023-09-20T12:01:10.018Z,33.32
2023-09-20T12:03:38.747Z,33.25
2023-09-20T12:06:08.750Z,33.42
2023-09-20T12:08:37.030Z,33.69
2023-09-20T12:11:05.336Z,33.75
2023-09-20T12:13:33.345Z,33.79
2023-09-20T12:16:39.741Z,33.58
2023-09-20T12:19:08.481Z,33.23
2023-09-20T12:21:36.647Z,33.09
2023-09-20T12:24:05.739Z,32.69
2023-09-20T12:26:35.248Z,32.36
2023-09-20T12:29:03.453Z,32.26
2023-09-20T12:31:31.573Z,32.14
2023-09-20T12:34:02.517Z,32.04
2023-09-20T12:36:31.480Z,32.00
2023-09-20T12:39:02.817Z,32.13
2023-09-20T12:41:31.177Z,32.41
2023-09-20T12:43:59.875Z,32.61
2023-09-20T12:47:28.924Z,32.85
2023-09-20T12:51:57.792Z,33.00
2023-09-20T12:56:06.750Z,33.12
2023-09-20T12:58:43.602Z,33.43
2023-09-20T13:01:12.004Z,33.57
2023-09-20T13:03:45.713Z,33.50
2023-09-20T13:06:15.479Z,33.56
2023-09-20T13:08:43.710Z,33.61
2023-09-20T13:11:11.908Z,33.68
2023-09-20T13:13:42.671Z,33.73
2023-09-20T13:16:11.323Z,33.93
2023-09-20T13:19:20.255Z,34.14
2023-09-20T13:21:48.322Z,34.29
2023-09-20T13:24:16.730Z,34.41
2023-09-20T13:26:45.550Z,34.28
2023-09-20T13:30:13.380Z,33.76
2023-09-20T13:32:43.029Z,33.36
2023-09-20T13:35:12.358Z,33.10
2023-09-20T13:37:48.575Z,32.55
2023-09-20T13:40:19.501Z,31.82
2023-09-20T13:42:47.835Z,31.38
2023-09-20T13:45:19.859Z,31.31
2023-09-20T13:47:51.222Z,31.40
2023-09-20T13:50:19.773Z,31.43
2023-09-20T13:52:48.290Z,31.34
2023-09-20T13:55:23.337Z,31.13
2023-09-20T13:57:57.020Z,30.88
2023-09-20T14:00:29.179Z,30.61
2023-09-20T14:02:58.723Z,30.30
2023-09-20T14:05:28.275Z,30.15
2023-09-20T14:07:57.515Z,30.19
2023-09-20T14:10:36.641Z,30.25
2023-09-20T14:13:04.884Z,30.32
2023-09-20T14:15:33.196Z,30.27
2023-09-20T14:18:02.700Z,30.24
2023-09-20T14:20:31.102Z,30.17
2023-09-20T14:22:59.625Z,30.16
2023-09-20T14:25:29.945Z,30.01
2023-09-20T14:27:58.415Z,29.82
2023-09-20T14:31:27.614Z,29.66
2023-09-20T14:35:57.287Z,29.34
2023-09-20T14:40:27.107Z,28.96
2023-09-20T14:43:22.108Z,28.92
2023-09-20T14:45:50.450Z,28.81
2023-09-20T14:48:23.204Z,28.73
2023-09-20T14:50:51.846Z,28.72
2023-09-20T14:53:20.288Z,28.65
2023-09-20T14:55:49.314Z,28.58
2023-09-20T14:58:19.182Z,28.47
2023-09-20T15:00:50.719Z,28.23
2023-09-20T15:03:18.947Z,27.93
2023-09-20T15:05:47.318Z,27.61
2023-09-20T15:08:15.535Z,27.29
2023-09-20T15:10:46.304Z,26.96
2023-09-20T15:13:14.606Z,26.70
2023-09-20T15:15:46.756Z,26.54
2023-09-20T15:18:16.041Z,26.39
2023-09-20T15:21:24.510Z,26.15
2023-09-20T15:23:58.025Z,25.83
2023-09-20T15:26:26.452Z,25.59
2023-09-20T15:28:55.919Z,25.40
2023-09-20T15:31:43.738Z,25.27
2023-09-20T15:34:12.180Z,25.20
2023-09-20T15:37:28.377Z,25.13
2023-09-20T15:39:56.615Z,24.99
2023-09-20T15:42:24.860Z,24.94
2023-09-20T15:44:56.557Z,24.92
2023-09-20T15:47:24.728Z,24.89
2023-09-20T15:50:35.378Z,24.81
2023-09-20T15:53:03.980Z,24.71
2023-09-20T15:55:32.046Z,24.69
2023-09-20T15:58:00.736Z,24.69
2023-09-20T16:00:30.642Z,24.67
2023-09-20T16:02:59.114Z,24.62
2023-09-20T16:05:28.297Z,24.56
2023-09-20T16:07:56.552Z,24.50
2023-09-20T16:10:24.639Z,24.47
2023-09-20T16:12:52.892Z,24.45
2023-09-20T16:15:41.921Z,24.43
2023-09-20T16:18:12.876Z,24.39
2023-09-20T16:20:41.780Z,24.34
2023-09-20T16:23:09.967Z,24.28
2023-09-20T16:25:39.244Z,24.23
2023-09-20T16:28:07.738Z,24.17
2023-09-20T16:31:36.607Z,24.09
2023-09-20T16:34:05.386Z,24.02
2023-09-20T16:36:33.384Z,23.97
2023-09-20T16:39:01.589Z,23.92
2023-09-20T16:41:30.144Z,23.85
2023-09-20T16:43:58.226Z,23.77
2023-09-20T16:46:26.329Z,23.67
2023-09-20T16:48:54.351Z,23.57
2023-09-20T16:51:22.773Z,23.44
2023-09-20T16:53:51.087Z,23.35
2023-09-20T16:56:19.316Z,23.26
2023-09-20T16:58:47.414Z,23.23
2023-09-20T17:01:19.624Z,23.20
2023-09-20T17:03:48.114Z,23.16
2023-09-20T17:06:17.112Z,23.11
2023-09-20T17:08:50.436Z,23.06
2023-09-20T17:11:19.786Z,23.01
2023-09-20T17:14:48.293Z,22.98
2023-09-20T17:17:18.111Z,22.92
2023-09-20T17:19:47.279Z,22.87
2023-09-20T17:22:15.385Z,22.82
2023-09-20T17:25:43.500Z,22.73
2023-09-20T17:28:12.220Z,22.59
2023-09-20T17:30:45.096Z,22.46
2023-09-20T17:33:14.196Z,22.32
2023-09-20T17:35:42.456Z,22.16
2023-09-20T17:38:10.573Z,22.04
2023-09-20T17:40:38.721Z,21.91
2023-09-20T17:43:06.730Z,21.79
2023-09-20T17:45:34.946Z,21.70
2023-09-20T17:49:07.850Z,21.61
2023-09-20T17:51:36.103Z,21.51
2023-09-20T17:54:25.145Z,21.45
2023-09-20T17:56:53.385Z,21.35
2023-09-20T17:59:24.741Z,21.29
2023-09-20T18:01:53.000Z,21.22
2023-09-20T18:04:22.908Z,21.17
2023-09-20T18:06:51.237Z,21.15
2023-09-20T18:09:19.348Z,21.14
2023-09-20T18:11:50.201Z,21.11
2023-09-20T18:14:39.006Z,21.08
2023-09-20T18:17:07.769Z,21.03
2023-09-20T18:19:36.700Z,20.98
2023-09-20T18:22:05.868Z,20.91
2023-09-20T18:25:17.438Z,20.81
2023-09-20T18:28:52.166Z,20.65
2023-09-20T18:32:32.180Z,20.55
2023-09-20T18:35:00.638Z,20.50
2023-09-20T18:37:29.435Z,20.49
2023-09-20T18:39:57.783Z,20.47
2023-09-20T18:42:26.069Z,20.45
2023-09-20T18:44:55.642Z,20.42
2023-09-20T18:47:37.104Z,20.35
2023-09-20T18:50:14.741Z,20.27
2023-09-20T18:52:44.700Z,20.22
2023-09-20T18:55:19.433Z,20.18
2023-09-20T18:57:54.491Z,20.18
2023-09-20T19:00:26.493Z,20.16
2023-09-20T19:02:56.628Z,20.13
2023-09-20T19:05:25.091Z,20.09
2023-09-20T19:07:53.371Z,20.05
2023-09-20T19:10:21.619Z,20.03
2023-09-20T19:12:50.143Z,19.98
2023-09-20T19:15:18.586Z,19.93
2023-09-20T19:17:48.266Z,19.91
2023-09-20T19:20:20.426Z,19.92
2023-09-20T19:22:48.876Z,19.93
2023-09-20T19:25:19.281Z,19.92
2023-09-20T19:27:49.268Z,19.93
2023-09-20T19:30:19.820Z,19.92
2023-09-20T19:32:48.656Z,19.91
2023-09-20T19:35:18.640Z,19.90
2023-09-20T19:37:47.059Z,19.88
2023-09-20T19:40:21.203Z,19.83
2023-09-20T19:42:51.935Z,19.74
2023-09-20T19:45:21.463Z,19.65
2023-09-20T19:47:49.860Z,19.60
2023-09-20T19:50:20.368Z,19.56
2023-09-20T19:52:49.310Z,19.55
2023-09-20T19:55:26.177Z,19.57
2023-09-20T19:58:54.712Z,19.61
2023-09-20T20:01:40.807Z,19.63
2023-09-20T20:04:09.944Z,19.62
2023-09-20T20:07:21.413Z,19.60
2023-09-20T20:09:54.470Z,19.55
2023-09-20T20:12:22.813Z,19.50
2023-09-20T20:14:50.740Z,19.44
2023-09-20T20:18:19.081Z,19.41
2023-09-20T20:21:27.607Z,19.35
2023-09-20T20:24:25.871Z,19.32
2023-09-20T20:26:54.727Z,19.34
2023-09-20T20:29:22.781Z,19.36
2023-09-20T20:31:50.896Z,19.41
2023-09-20T20:34:18.879Z,19.43
2023-09-20T20:36:50.146Z,19.42
2023-09-20T20:39:18.248Z,19.39
2023-09-20T20:41:49.346Z,19.35
2023-09-20T20:44:17.987Z,19.30
2023-09-20T20:47:04.392Z,19.25
2023-09-20T20:49:32.316Z,19.21
2023-09-20T20:52:01.227Z,19.19
2023-09-20T20:54:31.382Z,19.18
2023-09-20T20:56:59.864Z,19.14
2023-09-20T20:59:38.726Z,19.10
2023-09-20T21:02:08.727Z,19.03
2023-09-20T21:04:37.757Z,18.95
2023-09-20T21:07:27.808Z,18.88
2023-09-20T21:09:55.855Z,18.78
2023-09-20T21:12:31.853Z,18.71
2023-09-20T21:15:02.741Z,18.64
2023-09-20T21:17:50.626Z,18.60
2023-09-20T21:20:24.466Z,18.55
2023-09-20T21:22:55.201Z,18.50
2023-09-20T21:25:24.977Z,18.47
2023-09-20T21:28:56.372Z,18.43
2023-09-20T21:31:45.368Z,18.38
2023-09-20T21:34:13.356Z,18.33
2023-09-20T21:36:57.908Z,18.32
2023-09-20T21:40:06.393Z,18.30
2023-09-20T21:42:35.947Z,18.26
2023-09-20T21:45:07.861Z,18.25
2023-09-20T21:47:36.044Z,18.22
2023-09-20T21:50:30.194Z,18.18
2023-09-20T21:52:59.915Z,18.15
2023-09-20T21:55:32.119Z,18.12
2023-09-20T21:58:00.288Z,18.12
2023-09-20T22:00:28.291Z,18.11
2023-09-20T22:03:06.519Z,18.10
2023-09-20T22:05:35.746Z,18.08
2023-09-20T22:08:12.134Z,18.04
2023-09-20T22:10:44.192Z,17.99
2023-09-20T22:13:15.539Z,17.94
2023-09-20T22:15:46.470Z,17.93
2023-09-20T22:19:12.020Z,17.93
2023-09-20T22:21:40.764Z,17.93
2023-09-20T22:24:10.620Z,17.92
2023-09-20T22:26:38.890Z,17.93
2023-09-20T22:30:28.085Z,17.89
2023-09-20T22:34:16.576Z,17.88
2023-09-20T22:36:53.643Z,17.89
2023-09-20T22:39:23.797Z,17.90
2023-09-20T22:41:52.283Z,17.87
2023-09-20T22:45:19.239Z,17.84
2023-09-20T22:47:49.108Z,17.77
2023-09-20T22:50:24.485Z,17.72
2023-09-20T22:53:56.270Z,17.67
2023-09-20T22:57:13.701Z,17.63
2023-09-20T23:00:23.245Z,17.63
2023-09-20T23:03:15.890Z,17.65
2023-09-20T23:05:47.027Z,17.66
2023-09-20T23:08:15.927Z,17.66
2023-09-20T23:10:46.744Z,17.63
2023-09-20T23:13:52.613Z,17.61
2023-09-20T23:16:37.596Z,17.57
2023-09-20T23:19:06.690Z,17.52
2023-09-20T23:21:35.666Z,17.47
2023-09-20T23:24:04.361Z,17.41
2023-09-20T23:26:37.517Z,17.34
2023-09-20T23:29:08.702Z,17.27
2023-09-20T23:32:02.073Z,17.22
2023-09-20T23:35:27.359Z,17.16
2023-09-20T23:37:58.609Z,17.13
2023-09-20T23:40:27.578Z,17.14
2023-09-20T23:43:06.089Z,17.16
2023-09-20T23:45:37.062Z,17.12
2023-09-20T23:48:06.314Z,17.09
2023-09-20T23:50:34.661Z,17.04
2023-09-20T23:53:03.450Z,17.02
2023-09-20T23:55:47.556Z,16.98
2023-09-20T23:58:17.006Z,16.96
